Admire, Kansas
Current Conditions -  °F | °C
As of 3:53 AM on Friday 31 Oct 2014 (Local Time) from KEMP Reporting Station
Overcast Overcast  
Wind Chill: 38°   Ceiling: 2200
Heat Index: 46°   Visibility: 10mi
Dew Point: 38°   Wind: 20mph
Humidity: 73%   Direction: 340°NNW
Pressure: 30.33"   Gusts: 30mph
Location:  38.64°N, 96.1°W
Report Text: KEMP 310853Z AUTO 34017G26KT 10SM OVC022 08/03 A3033 RMK AO2 PK WND 01028/0839 SLP270 T00780033 53015
Loading
Personal Weather Stations






























Interactive Weather Map
Tropical Storm Tracking
New forecast layout! Learn more

10-Day Weather Forecast

Advertisements
Track Severe Weather on mobile